createdAt,value
2018-06-10T00:00:30.702Z,0.00
2018-06-10T00:01:30.659Z,0.00
2018-06-10T00:02:30.620Z,0.00
2018-06-10T00:03:30.603Z,0.00
2018-06-10T00:04:30.526Z,0.00
2018-06-10T00:05:30.477Z,0.00
2018-06-10T00:06:30.435Z,0.00
2018-06-10T00:07:30.389Z,0.00
2018-06-10T00:08:30.376Z,0.00
2018-06-10T00:09:30.301Z,0.00
2018-06-10T00:10:30.290Z,0.00
2018-06-10T00:11:30.211Z,0.00
2018-06-10T00:12:30.161Z,0.00
2018-06-10T00:13:30.160Z,0.00
2018-06-10T00:14:30.075Z,0.00
2018-06-10T00:15:30.030Z,0.00
2018-06-10T00:16:29.983Z,0.00
2018-06-10T00:17:29.941Z,0.00
2018-06-10T00:18:29.937Z,0.00
2018-06-10T00:19:29.854Z,0.00
2018-06-10T00:20:29.802Z,0.00
2018-06-10T00:21:29.766Z,0.00
2018-06-10T00:22:29.716Z,0.00
2018-06-10T00:23:29.700Z,0.00
2018-06-10T00:24:29.622Z,0.00
2018-06-10T00:25:29.580Z,0.00
2018-06-10T00:26:29.536Z,0.00
2018-06-10T00:27:29.521Z,0.00
2018-06-10T00:28:29.443Z,0.00
2018-06-10T00:29:29.402Z,0.00
2018-06-10T00:30:29.386Z,0.00
2018-06-10T00:31:29.307Z,0.00
2018-06-10T00:32:29.262Z,0.00
2018-06-10T00:33:29.220Z,0.00
2018-06-10T00:34:29.213Z,0.00
2018-06-10T00:35:29.125Z,0.00
2018-06-10T00:36:29.082Z,0.00
2018-06-10T00:37:29.038Z,0.00
2018-06-10T00:38:28.992Z,0.00
2018-06-10T00:39:28.985Z,0.00
2018-06-10T00:40:28.904Z,0.00
2018-06-10T00:41:28.863Z,0.00
2018-06-10T00:42:28.811Z,0.00
2018-06-10T00:43:28.768Z,0.00
2018-06-10T00:44:28.761Z,0.00
2018-06-10T00:45:28.677Z,0.00
2018-06-10T00:46:28.631Z,0.00
2018-06-10T00:47:28.587Z,0.00
2018-06-10T00:48:28.543Z,0.00
2018-06-10T00:49:28.532Z,0.00
2018-06-10T00:50:28.484Z,0.00
2018-06-10T00:51:28.406Z,0.00
2018-06-10T00:52:28.362Z,0.00
2018-06-10T00:53:28.318Z,0.00
2018-06-10T00:54:28.271Z,0.00
2018-06-10T00:55:28.269Z,0.00
2018-06-10T00:56:28.179Z,0.00
2018-06-10T00:57:28.133Z,0.00
2018-06-10T00:58:28.092Z,0.00
2018-06-10T00:59:28.047Z,0.00
2018-06-10T01:00:28.033Z,0.00
2018-06-10T01:01:27.955Z,0.00
2018-06-10T01:02:27.913Z,0.00
2018-06-10T01:03:27.867Z,0.00
2018-06-10T01:04:27.851Z,0.00
2018-06-10T01:05:27.777Z,0.00
2018-06-10T01:06:27.765Z,0.00
2018-06-10T01:07:27.687Z,0.00
2018-06-10T01:08:27.638Z,0.00
2018-06-10T01:09:27.629Z,0.00
2018-06-10T01:10:27.554Z,0.00
2018-06-10T01:11:27.506Z,0.00
2018-06-10T01:12:27.458Z,0.00
2018-06-10T01:13:27.416Z,0.00
2018-06-10T01:14:27.401Z,0.00
2018-06-10T01:15:27.322Z,0.00
2018-06-10T01:16:27.277Z,0.00
2018-06-10T01:17:27.230Z,0.00
2018-06-10T01:18:27.203Z,0.00
2018-06-10T01:19:27.174Z,0.00
2018-06-10T01:20:27.093Z,0.00
2018-06-10T01:21:27.099Z,0.00
2018-06-10T01:22:27.009Z,0.00
2018-06-10T01:23:26.963Z,0.00
2018-06-10T01:24:26.917Z,0.00
2018-06-10T01:25:26.880Z,0.00
2018-06-10T01:26:26.857Z,0.00
2018-06-10T01:27:26.780Z,0.00
2018-06-10T01:28:26.736Z,0.00
2018-06-10T01:29:26.720Z,0.00
2018-06-10T01:30:26.643Z,0.00
2018-06-10T01:31:26.597Z,0.00
2018-06-10T01:32:26.558Z,0.00
2018-06-10T01:33:26.512Z,0.00
2018-06-10T01:34:26.501Z,0.00
2018-06-10T01:35:26.420Z,0.00
2018-06-10T01:36:26.372Z,0.00
2018-06-10T01:37:26.329Z,0.00
2018-06-10T01:38:26.291Z,0.00
2018-06-10T01:39:26.280Z,0.00
2018-06-10T01:40:26.195Z,0.00
2018-06-10T01:41:26.149Z,0.00
2018-06-10T01:42:26.105Z,0.00
2018-06-10T01:43:26.057Z,0.00
2018-06-10T01:44:26.064Z,0.00
2018-06-10T01:45:25.968Z,0.00
2018-06-10T01:46:25.921Z,0.00
2018-06-10T01:47:25.877Z,0.00
2018-06-10T01:48:25.832Z,0.00
2018-06-10T01:49:25.850Z,0.00
2018-06-10T01:50:25.747Z,0.00
2018-06-10T01:51:25.700Z,0.00
2018-06-10T01:52:25.654Z,0.00
2018-06-10T01:53:25.609Z,0.00
2018-06-10T01:54:25.689Z,0.00
2018-06-10T01:55:25.519Z,0.00
2018-06-10T01:56:25.474Z,0.00
2018-06-10T01:57:25.430Z,0.00
2018-06-10T01:58:25.383Z,0.00
2018-06-10T01:59:25.369Z,0.00
2018-06-10T02:00:25.292Z,0.00
2018-06-10T02:01:25.251Z,0.00
2018-06-10T02:02:25.202Z,0.00
2018-06-10T02:03:25.160Z,0.00
2018-06-10T02:04:25.145Z,0.00
2018-06-10T02:05:25.069Z,0.00
2018-06-10T02:06:25.058Z,0.00
2018-06-10T02:07:24.976Z,0.00
2018-06-10T02:08:24.934Z,0.00
2018-06-10T02:09:24.919Z,0.00
2018-06-10T02:10:24.846Z,0.00
2018-06-10T02:11:24.797Z,0.00
2018-06-10T02:12:24.786Z,0.00
2018-06-10T02:13:24.708Z,0.00
2018-06-10T02:14:24.666Z,0.00
2018-06-10T02:15:24.621Z,0.00
2018-06-10T02:16:24.571Z,0.00
2018-06-10T02:17:24.559Z,0.00
2018-06-10T02:18:24.482Z,0.00
2018-06-10T02:19:24.436Z,0.00
2018-06-10T02:20:24.434Z,0.00
2018-06-10T02:21:24.347Z,0.00
2018-06-10T02:22:24.303Z,0.00
2018-06-10T02:23:24.258Z,0.00
2018-06-10T02:24:24.214Z,0.00
2018-06-10T02:25:24.201Z,0.00
2018-06-10T02:26:24.123Z,0.00
2018-06-10T02:27:24.076Z,0.00
2018-06-10T02:28:24.033Z,0.00
2018-06-10T02:29:24.020Z,0.00
2018-06-10T02:30:23.943Z,0.00
2018-06-10T02:31:23.896Z,0.00
2018-06-10T02:32:23.857Z,0.00
2018-06-10T02:33:23.806Z,0.00
2018-06-10T02:34:23.795Z,0.00
2018-06-10T02:35:23.720Z,0.00
2018-06-10T02:36:23.678Z,0.00
2018-06-10T02:37:23.630Z,0.00
2018-06-10T02:38:23.584Z,0.00
2018-06-10T02:39:23.575Z,0.00
2018-06-10T02:40:23.492Z,0.00
2018-06-10T02:41:23.447Z,0.00
2018-06-10T02:42:23.404Z,0.00
2018-06-10T02:43:23.359Z,0.00
2018-06-10T02:44:23.342Z,0.00
2018-06-10T02:45:23.299Z,0.00
2018-06-10T02:46:23.231Z,0.00
2018-06-10T02:47:23.177Z,0.00
2018-06-10T02:48:23.129Z,0.00
2018-06-10T02:49:23.095Z,0.00
2018-06-10T02:50:23.076Z,0.00
2018-06-10T02:51:23.028Z,0.00
2018-06-10T02:52:23.005Z,0.00
2018-06-10T02:53:22.907Z,0.00
2018-06-10T02:54:22.866Z,0.00
2018-06-10T02:55:22.858Z,0.00
2018-06-10T02:56:22.768Z,0.00
2018-06-10T02:57:22.723Z,0.00
2018-06-10T02:58:22.684Z,0.00
2018-06-10T02:59:22.643Z,0.00
2018-06-10T03:00:22.622Z,0.00
2018-06-10T03:01:22.578Z,0.00
2018-06-10T03:02:22.501Z,0.00
2018-06-10T03:03:22.453Z,0.00
2018-06-10T03:04:22.416Z,0.00
2018-06-10T03:05:22.398Z,0.00
2018-06-10T03:06:22.320Z,0.00
2018-06-10T03:07:22.275Z,0.00
2018-06-10T03:08:22.237Z,0.00
2018-06-10T03:09:22.192Z,0.00
2018-06-10T03:10:22.177Z,0.00
2018-06-10T03:11:22.135Z,0.00
2018-06-10T03:12:22.050Z,0.00
2018-06-10T03:13:22.011Z,0.00
2018-06-10T03:14:21.959Z,0.00
2018-06-10T03:15:21.916Z,0.00
2018-06-10T03:16:21.909Z,0.00
2018-06-10T03:17:21.827Z,0.00
2018-06-10T03:18:21.781Z,0.00
2018-06-10T03:19:21.732Z,0.00
2018-06-10T03:20:21.690Z,0.00
2018-06-10T03:21:21.688Z,0.00
2018-06-10T03:22:21.638Z,0.00
2018-06-10T03:23:21.555Z,0.00
2018-06-10T03:24:21.512Z,0.00
2018-06-10T03:25:21.466Z,0.00
2018-06-10T03:26:21.423Z,0.00
2018-06-10T03:27:21.404Z,0.00
2018-06-10T03:28:21.327Z,0.00
2018-06-10T03:29:21.283Z,0.00
2018-06-10T03:30:21.238Z,0.00
2018-06-10T03:31:21.189Z,0.00
2018-06-10T03:32:21.198Z,0.00
2018-06-10T03:33:21.104Z,0.00
2018-06-10T03:34:21.057Z,0.00
2018-06-10T03:35:21.013Z,0.00
2018-06-10T03:36:20.964Z,0.00
2018-06-10T03:37:20.962Z,0.00
2018-06-10T03:38:20.879Z,0.00
2018-06-10T03:39:20.834Z,0.00
2018-06-10T03:40:20.787Z,0.00
2018-06-10T03:41:20.740Z,0.00
2018-06-10T03:42:20.736Z,0.00
2018-06-10T03:43:20.653Z,0.00
2018-06-10T03:44:20.605Z,0.00
2018-06-10T03:45:20.564Z,0.00
2018-06-10T03:46:20.523Z,0.00
2018-06-10T03:47:20.507Z,0.00
2018-06-10T03:48:20.423Z,0.00
2018-06-10T03:49:20.381Z,0.00
2018-06-10T03:50:20.337Z,0.00
2018-06-10T03:51:20.323Z,0.00
2018-06-10T03:52:20.245Z,0.00
2018-06-10T03:53:20.234Z,0.00
2018-06-10T03:54:20.159Z,0.00
2018-06-10T03:55:20.149Z,0.00
2018-06-10T03:56:20.064Z,0.00
2018-06-10T03:57:20.019Z,0.00
2018-06-10T03:58:20.010Z,0.00
2018-06-10T03:59:19.964Z,0.00
2018-06-10T04:00:19.887Z,0.00
2018-06-10T04:01:19.844Z,0.00
2018-06-10T04:02:19.800Z,0.00
2018-06-10T04:03:19.790Z,0.00
2018-06-10T04:04:19.708Z,0.00
2018-06-10T04:05:19.660Z,0.00
2018-06-10T04:06:19.618Z,0.00
2018-06-10T04:07:19.570Z,0.00
2018-06-10T04:08:19.569Z,0.00
2018-06-10T04:09:19.485Z,5.63
2018-06-10T04:10:19.437Z,5.63
2018-06-10T04:11:19.397Z,5.63
2018-06-10T04:12:19.349Z,5.63
2018-06-10T04:13:19.337Z,5.63
2018-06-10T04:14:19.258Z,5.63
2018-06-10T04:15:19.210Z,5.63
2018-06-10T04:16:19.170Z,5.63
2018-06-10T04:17:19.125Z,5.63
2018-06-10T04:18:19.119Z,5.63
2018-06-10T04:19:19.031Z,5.63
2018-06-10T04:20:18.989Z,5.63
2018-06-10T04:21:18.946Z,5.63
2018-06-10T04:22:18.899Z,5.63
2018-06-10T04:23:18.886Z,5.63
2018-06-10T04:24:18.810Z,5.63
2018-06-10T04:25:18.766Z,5.63
2018-06-10T04:26:18.721Z,5.63
2018-06-10T04:27:18.707Z,5.63
2018-06-10T04:28:18.632Z,5.63
2018-06-10T04:29:18.590Z,5.63
2018-06-10T04:30:18.541Z,5.63
2018-06-10T04:31:18.494Z,5.63
2018-06-10T04:32:18.502Z,11.25
2018-06-10T04:33:18.410Z,11.25
2018-06-10T04:34:18.361Z,11.25
2018-06-10T04:35:18.316Z,11.25
2018-06-10T04:36:18.272Z,11.25
2018-06-10T04:37:18.257Z,11.25
2018-06-10T04:38:18.183Z,11.25
2018-06-10T04:39:18.136Z,11.25
2018-06-10T04:40:18.089Z,11.25
2018-06-10T04:41:18.077Z,11.25
2018-06-10T04:42:18.002Z,11.25
2018-06-10T04:43:17.955Z,11.25
2018-06-10T04:44:17.912Z,11.25
2018-06-10T04:45:17.897Z,11.25
2018-06-10T04:46:17.824Z,11.25
2018-06-10T04:47:17.816Z,11.25
2018-06-10T04:48:17.732Z,11.25
2018-06-10T04:49:17.685Z,11.25
2018-06-10T04:50:17.675Z,16.88
2018-06-10T04:51:17.599Z,16.88
2018-06-10T04:52:17.551Z,16.88
2018-06-10T04:53:17.506Z,16.88
2018-06-10T04:54:17.467Z,16.88
2018-06-10T04:55:17.450Z,16.88
2018-06-10T04:56:17.371Z,16.88
2018-06-10T04:57:17.326Z,16.88
2018-06-10T04:58:17.283Z,16.88
2018-06-10T04:59:17.240Z,16.88
2018-06-10T05:00:17.223Z,16.88
2018-06-10T05:01:17.148Z,16.88
2018-06-10T05:02:17.105Z,16.88
2018-06-10T05:03:17.058Z,16.88
2018-06-10T05:04:17.010Z,22.50
2018-06-10T05:05:17.011Z,22.50
2018-06-10T05:06:16.930Z,22.50
2018-06-10T05:07:16.882Z,22.50
2018-06-10T05:08:16.902Z,22.50
2018-06-10T05:09:16.786Z,22.50
2018-06-10T05:10:16.775Z,28.13
2018-06-10T05:11:16.727Z,28.13
2018-06-10T05:12:16.689Z,28.13
2018-06-10T05:13:16.613Z,28.13
2018-06-10T05:14:16.566Z,28.13
2018-06-10T05:15:16.519Z,33.75
2018-06-10T05:16:16.512Z,33.75
2018-06-10T05:17:16.430Z,33.75
2018-06-10T05:18:16.386Z,33.75
2018-06-10T05:19:16.338Z,33.75
2018-06-10T05:20:16.295Z,39.38
2018-06-10T05:21:16.300Z,39.38
2018-06-10T05:22:16.207Z,39.38
2018-06-10T05:23:16.159Z,39.38
2018-06-10T05:24:16.120Z,39.38
2018-06-10T05:25:16.074Z,39.38
2018-06-10T05:26:16.069Z,45.00
2018-06-10T05:27:15.981Z,45.00
2018-06-10T05:28:15.936Z,45.00
2018-06-10T05:29:15.893Z,45.00
2018-06-10T05:30:15.849Z,45.00
2018-06-10T05:31:15.834Z,45.00
2018-06-10T05:32:15.760Z,45.00
2018-06-10T05:33:15.715Z,50.63
2018-06-10T05:34:15.723Z,50.63
2018-06-10T05:35:15.623Z,50.63
2018-06-10T05:36:15.581Z,50.63
2018-06-10T05:37:15.539Z,50.63
2018-06-10T05:38:15.499Z,50.63
2018-06-10T05:39:15.481Z,56.25
2018-06-10T05:40:15.406Z,56.25
2018-06-10T05:41:15.393Z,56.25
2018-06-10T05:42:15.318Z,56.25
2018-06-10T05:43:15.273Z,61.88
2018-06-10T05:44:15.250Z,61.88
2018-06-10T05:45:15.178Z,67.50
2018-06-10T05:46:15.175Z,73.13
2018-06-10T05:47:15.093Z,73.13
2018-06-10T05:48:15.049Z,78.75
2018-06-10T05:49:15.002Z,78.75
2018-06-10T05:50:14.966Z,78.75
2018-06-10T05:51:15.002Z,84.38
2018-06-10T05:52:14.904Z,84.38
2018-06-10T05:53:14.825Z,84.38
2018-06-10T05:54:14.780Z,90.00
2018-06-10T05:55:14.738Z,90.00
2018-06-10T05:56:14.695Z,90.00
2018-06-10T05:57:14.698Z,90.00
2018-06-10T05:58:14.605Z,90.00
2018-06-10T05:59:14.566Z,84.38
2018-06-10T06:00:14.524Z,78.75
2018-06-10T06:01:14.477Z,84.38
2018-06-10T06:02:14.469Z,84.38
2018-06-10T06:03:14.392Z,84.38
2018-06-10T06:04:14.344Z,84.38
2018-06-10T06:05:14.302Z,84.38
2018-06-10T06:06:14.253Z,90.00
2018-06-10T06:07:14.244Z,101.25
2018-06-10T06:08:14.210Z,101.25
2018-06-10T06:09:14.130Z,106.88
2018-06-10T06:10:14.089Z,112.50
2018-06-10T06:11:14.036Z,112.50
2018-06-10T06:12:13.992Z,112.50
2018-06-10T06:13:13.977Z,112.50
2018-06-10T06:14:13.902Z,106.88
2018-06-10T06:15:13.861Z,106.88
2018-06-10T06:16:13.812Z,106.88
2018-06-10T06:17:13.777Z,112.50
2018-06-10T06:18:13.759Z,112.50
2018-06-10T06:19:13.686Z,112.50
2018-06-10T06:20:13.642Z,118.13
2018-06-10T06:21:13.602Z,118.13
2018-06-10T06:22:13.588Z,118.13
2018-06-10T06:23:13.515Z,118.13
2018-06-10T06:24:13.466Z,118.13
2018-06-10T06:25:13.427Z,118.13
2018-06-10T06:26:13.384Z,118.13
2018-06-10T06:27:13.371Z,118.13
2018-06-10T06:28:13.295Z,118.13
2018-06-10T06:29:13.251Z,118.13
2018-06-10T06:30:13.205Z,118.13
2018-06-10T06:31:13.186Z,118.13
2018-06-10T06:32:13.154Z,123.75
2018-06-10T06:33:13.105Z,123.75
2018-06-10T06:34:13.034Z,123.75
2018-06-10T06:35:13.018Z,129.38
2018-06-10T06:36:12.981Z,140.63
2018-06-10T06:37:12.901Z,151.88
2018-06-10T06:38:12.878Z,168.75
2018-06-10T06:39:12.813Z,174.38
2018-06-10T06:40:12.774Z,174.38
2018-06-10T06:41:12.761Z,180.00
2018-06-10T06:42:12.695Z,191.25
2018-06-10T06:43:12.644Z,202.50
2018-06-10T06:44:12.634Z,213.75
2018-06-10T06:45:12.555Z,230.63
2018-06-10T06:46:12.515Z,247.50
2018-06-10T06:47:12.536Z,253.13
2018-06-10T06:48:12.432Z,253.13
2018-06-10T06:49:12.424Z,247.50
2018-06-10T06:50:12.344Z,258.75
2018-06-10T06:51:12.298Z,264.38
2018-06-10T06:52:12.258Z,275.63
2018-06-10T06:53:12.213Z,281.25
2018-06-10T06:54:12.207Z,270.00
2018-06-10T06:55:12.133Z,253.13
2018-06-10T06:56:12.092Z,247.50
2018-06-10T06:57:12.040Z,253.13
2018-06-10T06:58:11.997Z,270.00
2018-06-10T06:59:11.993Z,281.25
2018-06-10T07:00:11.914Z,281.25
2018-06-10T07:01:11.873Z,281.25
2018-06-10T07:02:11.830Z,303.75
2018-06-10T07:03:11.786Z,315.00
2018-06-10T07:04:11.790Z,320.63
2018-06-10T07:05:11.708Z,315.00
2018-06-10T07:06:11.662Z,286.88
2018-06-10T07:07:11.623Z,286.88
2018-06-10T07:08:11.582Z,281.25
2018-06-10T07:09:11.569Z,275.63
2018-06-10T07:10:11.494Z,264.38
2018-06-10T07:11:11.452Z,258.75
2018-06-10T07:12:11.411Z,247.50
2018-06-10T07:13:11.369Z,236.25
2018-06-10T07:14:11.370Z,225.00
2018-06-10T07:15:11.284Z,213.75
2018-06-10T07:16:11.283Z,208.13
2018-06-10T07:17:11.198Z,208.13
2018-06-10T07:18:11.163Z,208.13
2018-06-10T07:19:11.117Z,208.13
2018-06-10T07:20:11.097Z,213.75
2018-06-10T07:21:11.066Z,219.38
2018-06-10T07:22:10.993Z,225.00
2018-06-10T07:23:10.951Z,230.63
2018-06-10T07:24:10.907Z,230.63
2018-06-10T07:25:10.872Z,230.63
2018-06-10T07:26:10.867Z,236.25
2018-06-10T07:27:10.786Z,241.88
2018-06-10T07:28:10.743Z,236.25
2018-06-10T07:29:10.700Z,241.88
2018-06-10T07:30:10.660Z,253.13
2018-06-10T07:31:10.657Z,258.75
2018-06-10T07:32:10.575Z,264.38
2018-06-10T07:33:10.539Z,264.38
2018-06-10T07:34:10.497Z,264.38
2018-06-10T07:35:10.452Z,286.88
2018-06-10T07:36:10.450Z,292.50
2018-06-10T07:37:10.407Z,303.75
2018-06-10T07:38:10.337Z,298.13
2018-06-10T07:39:10.286Z,320.63
2018-06-10T07:40:10.247Z,326.25
2018-06-10T07:41:10.333Z,331.88
2018-06-10T07:42:10.167Z,343.13
2018-06-10T07:43:10.127Z,343.13
2018-06-10T07:44:10.080Z,348.75
2018-06-10T07:45:10.044Z,348.75
2018-06-10T07:46:10.052Z,337.50
2018-06-10T07:47:09.957Z,343.13
2018-06-10T07:48:09.916Z,337.50
2018-06-10T07:49:09.884Z,320.63
2018-06-10T07:50:09.839Z,320.63
2018-06-10T07:51:09.836Z,292.50
2018-06-10T07:52:09.786Z,292.50
2018-06-10T07:53:09.714Z,298.13
2018-06-10T07:54:09.674Z,275.63
2018-06-10T07:55:09.633Z,253.13
2018-06-10T07:56:09.624Z,241.88
2018-06-10T07:57:09.588Z,236.25
2018-06-10T07:58:09.552Z,236.25
2018-06-10T07:59:09.510Z,247.50
2018-06-10T08:00:09.493Z,264.38
2018-06-10T08:01:09.384Z,275.63
2018-06-10T08:02:09.387Z,286.88
2018-06-10T08:03:09.340Z,286.88
2018-06-10T08:04:09.298Z,281.25
2018-06-10T08:05:09.263Z,286.88
2018-06-10T08:06:09.195Z,281.25
2018-06-10T08:07:09.175Z,286.88
2018-06-10T08:08:09.137Z,253.13
2018-06-10T08:09:09.063Z,219.38
2018-06-10T08:10:09.018Z,208.13
2018-06-10T08:11:08.978Z,202.50
2018-06-10T08:12:08.940Z,219.38
2018-06-10T08:13:08.932Z,236.25
2018-06-10T08:14:08.859Z,247.50
2018-06-10T08:15:08.852Z,281.25
2018-06-10T08:16:08.778Z,326.25
2018-06-10T08:17:08.735Z,348.75
2018-06-10T08:18:08.696Z,371.25
2018-06-10T08:19:08.680Z,376.88
2018-06-10T08:20:08.647Z,399.38
2018-06-10T08:21:08.571Z,410.63
2018-06-10T08:22:08.537Z,410.63
2018-06-10T08:23:08.620Z,410.63
2018-06-10T08:24:08.454Z,405.00
2018-06-10T08:25:08.416Z,421.88
2018-06-10T08:26:08.374Z,421.88
2018-06-10T08:27:08.329Z,416.25
2018-06-10T08:28:08.330Z,376.88
2018-06-10T08:29:08.259Z,405.00
2018-06-10T08:30:08.211Z,399.38
2018-06-10T08:31:08.170Z,416.25
2018-06-10T08:32:08.140Z,466.88
2018-06-10T08:33:08.124Z,466.88
2018-06-10T08:34:08.052Z,478.13
2018-06-10T08:35:08.010Z,461.25
2018-06-10T08:36:07.968Z,489.38
2018-06-10T08:37:07.933Z,489.38
2018-06-10T08:38:07.930Z,478.13
2018-06-10T08:39:07.881Z,478.13
2018-06-10T08:40:07.846Z,421.88
2018-06-10T08:41:07.787Z,433.13
2018-06-10T08:42:07.738Z,371.25
2018-06-10T08:43:07.691Z,371.25
2018-06-10T08:44:07.720Z,365.63
2018-06-10T08:45:07.616Z,348.75
2018-06-10T08:46:07.617Z,348.75
2018-06-10T08:47:07.536Z,348.75
2018-06-10T08:48:07.538Z,337.50
2018-06-10T08:49:07.457Z,326.25
2018-06-10T08:50:07.417Z,315.00
2018-06-10T08:51:07.420Z,309.38
2018-06-10T08:52:07.343Z,309.38
2018-06-10T08:53:07.299Z,337.50
2018-06-10T08:54:07.309Z,320.63
2018-06-10T08:55:07.224Z,315.00
2018-06-10T08:56:07.224Z,309.38
2018-06-10T08:57:07.145Z,309.38
2018-06-10T08:58:07.103Z,315.00
2018-06-10T08:59:07.066Z,303.75
2018-06-10T09:00:07.028Z,303.75
2018-06-10T09:01:07.027Z,286.88
2018-06-10T09:02:06.949Z,275.63
2018-06-10T09:03:06.910Z,264.38
2018-06-10T09:04:07.451Z,253.13
2018-06-10T09:05:06.830Z,258.75
2018-06-10T09:06:06.822Z,258.75
2018-06-10T09:07:06.756Z,247.50
2018-06-10T09:08:06.714Z,247.50
2018-06-10T09:09:06.679Z,241.88
2018-06-10T09:10:06.635Z,236.25
2018-06-10T09:11:06.632Z,225.00
2018-06-10T09:12:06.565Z,219.38
2018-06-10T09:13:06.653Z,213.75
2018-06-10T09:14:07.405Z,208.13
2018-06-10T09:15:06.549Z,202.50
2018-06-10T09:16:06.405Z,196.88
2018-06-10T09:17:06.373Z,196.88
2018-06-10T09:18:06.321Z,196.88
2018-06-10T09:19:06.285Z,196.88
2018-06-10T09:20:06.342Z,196.88
2018-06-10T09:21:06.205Z,196.88
2018-06-10T09:22:06.165Z,196.88
2018-06-10T09:23:06.183Z,196.88
2018-06-10T09:24:06.089Z,196.88
2018-06-10T09:25:06.083Z,196.88
2018-06-10T09:26:06.008Z,202.50
2018-06-10T09:27:05.993Z,213.75
2018-06-10T09:28:05.930Z,225.00
2018-06-10T09:29:05.893Z,213.75
2018-06-10T09:30:05.887Z,225.00
2018-06-10T09:31:05.815Z,241.88
2018-06-10T09:32:05.805Z,303.75
2018-06-10T09:33:05.735Z,303.75
2018-06-10T09:34:05.773Z,303.75
2018-06-10T09:35:05.655Z,281.25
2018-06-10T09:36:05.619Z,264.38
2018-06-10T09:37:05.611Z,253.13
2018-06-10T09:38:05.541Z,247.50
2018-06-10T09:39:05.502Z,247.50
2018-06-10T09:40:05.464Z,253.13
2018-06-10T09:41:05.425Z,253.13
2018-06-10T09:42:05.466Z,270.00
2018-06-10T09:43:05.397Z,275.63
2018-06-10T09:44:05.301Z,275.63
2018-06-10T09:45:05.271Z,270.00
2018-06-10T09:46:05.228Z,258.75
2018-06-10T09:47:05.221Z,253.13
2018-06-10T09:48:05.150Z,247.50
2018-06-10T09:49:05.116Z,247.50
2018-06-10T09:50:05.882Z,253.13
2018-06-10T09:51:05.033Z,264.38
2018-06-10T09:52:05.026Z,264.38
2018-06-10T09:53:04.964Z,264.38
2018-06-10T09:54:04.953Z,247.50
2018-06-10T09:55:04.939Z,241.88
2018-06-10T09:56:04.841Z,241.88
2018-06-10T09:57:04.834Z,241.88
2018-06-10T09:58:04.761Z,253.13
2018-06-10T09:59:04.776Z,253.13
2018-06-10T10:00:04.687Z,275.63
2018-06-10T10:01:04.646Z,309.38
2018-06-10T10:02:04.640Z,298.13
2018-06-10T10:03:04.567Z,286.88
2018-06-10T10:04:04.529Z,298.13
2018-06-10T10:05:04.492Z,376.88
2018-06-10T10:06:04.449Z,427.50
2018-06-10T10:07:04.447Z,421.88
2018-06-10T10:08:04.388Z,410.63
2018-06-10T10:09:04.334Z,399.38
2018-06-10T10:10:04.300Z,388.13
2018-06-10T10:11:04.262Z,382.50
2018-06-10T10:12:04.252Z,371.25
2018-06-10T10:13:04.179Z,365.63
2018-06-10T10:14:04.147Z,365.63
2018-06-10T10:15:04.108Z,354.38
2018-06-10T10:16:04.070Z,354.38
2018-06-10T10:17:04.060Z,360.00
2018-06-10T10:18:03.991Z,360.00
2018-06-10T10:19:03.983Z,360.00
2018-06-10T10:20:03.913Z,360.00
2018-06-10T10:21:03.874Z,360.00
2018-06-10T10:22:03.889Z,360.00
2018-06-10T10:23:03.798Z,360.00
2018-06-10T10:24:03.816Z,360.00
2018-06-10T10:25:03.724Z,360.00
2018-06-10T10:26:03.688Z,365.63
2018-06-10T10:27:03.682Z,365.63
2018-06-10T10:28:03.616Z,365.63
2018-06-10T10:29:03.574Z,365.63
2018-06-10T10:30:03.536Z,365.63
2018-06-10T10:31:03.530Z,360.00
2018-06-10T10:32:03.462Z,365.63
2018-06-10T10:33:03.428Z,360.00
2018-06-10T10:34:03.386Z,365.63
2018-06-10T10:35:03.351Z,365.63
2018-06-10T10:36:03.342Z,360.00
2018-06-10T10:37:03.273Z,360.00
2018-06-10T10:38:03.241Z,348.75
2018-06-10T10:39:03.240Z,365.63
2018-06-10T10:40:03.161Z,371.25
2018-06-10T10:41:03.127Z,371.25
2018-06-10T10:42:03.089Z,376.88
2018-06-10T10:43:03.050Z,376.88
2018-06-10T10:44:03.052Z,382.50
2018-06-10T10:45:02.980Z,382.50
2018-06-10T10:46:02.942Z,382.50
2018-06-10T10:47:02.901Z,376.88
2018-06-10T10:48:02.940Z,371.25
2018-06-10T10:49:02.833Z,371.25
2018-06-10T10:50:02.798Z,371.25
2018-06-10T10:51:02.791Z,371.25
2018-06-10T10:52:02.721Z,371.25
2018-06-10T10:53:02.688Z,371.25
2018-06-10T10:54:02.657Z,382.50
2018-06-10T10:55:02.616Z,286.88
2018-06-10T10:56:02.633Z,303.75
2018-06-10T10:57:02.538Z,331.88
2018-06-10T10:58:02.508Z,382.50
2018-06-10T10:59:02.462Z,388.13
2018-06-10T11:00:02.430Z,388.13
2018-06-10T11:01:02.438Z,388.13
2018-06-10T11:02:02.359Z,393.75
2018-06-10T11:03:02.322Z,388.13
2018-06-10T11:04:02.288Z,382.50
2018-06-10T11:05:02.245Z,382.50
2018-06-10T11:06:02.257Z,376.88
2018-06-10T11:07:02.181Z,376.88
2018-06-10T11:08:02.141Z,376.88
2018-06-10T11:09:02.098Z,382.50
2018-06-10T11:10:02.066Z,376.88
2018-06-10T11:11:02.060Z,382.50
2018-06-10T11:12:01.997Z,382.50
2018-06-10T11:13:01.954Z,382.50
2018-06-10T11:14:01.924Z,382.50
2018-06-10T11:15:01.884Z,376.88
2018-06-10T11:16:01.885Z,376.88
2018-06-10T11:17:01.814Z,376.88
2018-06-10T11:18:01.781Z,382.50
2018-06-10T11:19:01.739Z,376.88
2018-06-10T11:20:01.705Z,376.88
2018-06-10T11:21:01.700Z,376.88
2018-06-10T11:22:01.662Z,376.88
2018-06-10T11:23:01.596Z,376.88
2018-06-10T11:24:01.565Z,365.63
2018-06-10T11:25:01.523Z,365.63
2018-06-10T11:26:01.487Z,365.63
2018-06-10T11:27:01.530Z,365.63
2018-06-10T11:28:01.418Z,360.00
2018-06-10T11:29:01.387Z,365.63
2018-06-10T11:30:01.345Z,371.25
2018-06-10T11:31:01.355Z,382.50
2018-06-10T11:32:01.309Z,388.13
2018-06-10T11:33:01.269Z,286.88
2018-06-10T11:34:01.203Z,376.88
2018-06-10T11:35:01.166Z,393.75
2018-06-10T11:36:01.131Z,393.75
2018-06-10T11:37:01.102Z,393.75
2018-06-10T11:38:01.104Z,393.75
2018-06-10T11:39:01.027Z,393.75
2018-06-10T11:40:00.991Z,405.00
2018-06-10T11:41:00.956Z,405.00
2018-06-10T11:42:00.922Z,241.88
2018-06-10T11:43:00.917Z,354.38
2018-06-10T11:44:00.850Z,393.75
2018-06-10T11:45:00.849Z,326.25
2018-06-10T11:46:00.780Z,219.38
2018-06-10T11:47:00.744Z,275.63
2018-06-10T11:48:00.710Z,202.50
2018-06-10T11:49:00.677Z,196.88
2018-06-10T11:50:00.676Z,196.88
2018-06-10T11:51:00.605Z,213.75
2018-06-10T11:52:00.650Z,225.00
2018-06-10T11:53:00.536Z,219.38
2018-06-10T11:54:00.503Z,225.00
2018-06-10T11:55:00.498Z,225.00
2018-06-10T11:56:00.429Z,225.00
2018-06-10T11:57:00.401Z,219.38
2018-06-10T11:58:00.426Z,326.25
2018-06-10T11:59:00.355Z,298.13
2018-06-10T12:00:00.322Z,388.13
2018-06-10T12:01:00.256Z,360.00
2018-06-10T12:02:00.263Z,348.75
2018-06-10T12:03:00.184Z,191.25
2018-06-10T12:04:00.146Z,174.38
2018-06-10T12:05:00.148Z,174.38
2018-06-10T12:06:00.082Z,163.13
2018-06-10T12:07:00.048Z,174.38
2018-06-10T12:08:00.014Z,157.50
2018-06-10T12:08:59.969Z,146.25
2018-06-10T12:09:59.971Z,140.63
2018-06-10T12:10:59.901Z,146.25
2018-06-10T12:11:59.867Z,157.50
2018-06-10T12:12:59.825Z,168.75
2018-06-10T12:13:59.796Z,180.00
2018-06-10T12:14:59.793Z,185.63
2018-06-10T12:15:59.724Z,191.25
2018-06-10T12:16:59.729Z,202.50
2018-06-10T12:17:59.687Z,236.25
2018-06-10T12:18:59.615Z,225.00
2018-06-10T12:19:59.582Z,241.88
2018-06-10T12:20:59.542Z,236.25
2018-06-10T12:21:59.507Z,225.00
2018-06-10T12:22:59.503Z,236.25
2018-06-10T12:23:59.441Z,241.88
2018-06-10T12:24:59.402Z,225.00
2018-06-10T12:25:59.362Z,225.00
2018-06-10T12:26:59.361Z,225.00
2018-06-10T12:27:59.292Z,264.38
2018-06-10T12:28:59.259Z,343.13
2018-06-10T12:29:59.219Z,247.50
2018-06-10T12:30:59.222Z,196.88
2018-06-10T12:31:59.149Z,174.38
2018-06-10T12:32:59.113Z,157.50
2018-06-10T12:33:59.109Z,163.13
2018-06-10T12:34:59.039Z,163.13
2018-06-10T12:35:59.004Z,191.25
2018-06-10T12:36:58.970Z,168.75
2018-06-10T12:37:58.930Z,151.88
2018-06-10T12:38:58.930Z,151.88
2018-06-10T12:39:58.868Z,151.88
2018-06-10T12:40:58.822Z,151.88
2018-06-10T12:41:58.790Z,163.13
2018-06-10T12:42:58.790Z,315.00
2018-06-10T12:43:58.714Z,337.50
2018-06-10T12:44:58.682Z,354.38
2018-06-10T12:45:58.641Z,348.75
2018-06-10T12:46:58.611Z,326.25
2018-06-10T12:47:58.610Z,208.13